createdAt,value
2022-11-24T00:00:43.925Z,1.40
2022-11-24T00:04:25.885Z,1.95
2022-11-24T00:08:07.560Z,1.20
2022-11-24T00:12:09.324Z,1.30
2022-11-24T00:15:51.026Z,2.10
2022-11-24T00:19:32.718Z,2.13
2022-11-24T00:23:34.712Z,1.48
2022-11-24T00:27:16.542Z,1.40
2022-11-24T00:30:58.318Z,1.48
2022-11-24T00:34:43.297Z,1.75
2022-11-24T00:38:25.250Z,1.58
2022-11-24T00:42:25.860Z,2.65
2022-11-24T00:46:07.766Z,2.47
2022-11-24T00:49:49.559Z,2.03
2022-11-24T00:53:32.637Z,1.98
2022-11-24T00:57:14.354Z,2.20
2022-11-24T01:00:56.316Z,1.52
2022-11-24T01:04:38.197Z,2.25
2022-11-24T01:08:19.926Z,2.03
2022-11-24T01:12:01.857Z,1.63
2022-11-24T01:15:43.638Z,1.83
2022-11-24T01:19:25.364Z,2.20
2022-11-24T01:23:09.365Z,2.07
2022-11-24T01:26:51.093Z,2.33
2022-11-24T01:30:32.852Z,2.45
2022-11-24T01:34:19.739Z,3.08
2022-11-24T01:38:01.435Z,2.90
2022-11-24T01:42:05.047Z,2.72
2022-11-24T01:45:47.415Z,2.90
2022-11-24T01:49:51.963Z,2.53
2022-11-24T01:53:35.897Z,2.83
2022-11-24T01:57:23.812Z,3.60
2022-11-24T02:01:05.636Z,3.70
2022-11-24T02:04:47.656Z,2.50
2022-11-24T02:08:32.510Z,3.05
2022-11-24T02:12:15.499Z,2.92
2022-11-24T02:15:57.269Z,3.73
2022-11-24T02:19:54.049Z,3.05
2022-11-24T02:24:00.939Z,2.97
2022-11-24T02:27:43.680Z,2.78
2022-11-24T02:31:46.804Z,2.67
2022-11-24T02:35:28.620Z,2.38
2022-11-24T02:39:14.850Z,3.08
2022-11-24T02:43:12.484Z,2.92
2022-11-24T02:47:08.407Z,3.00
2022-11-24T02:50:50.131Z,3.08
2022-11-24T02:54:33.274Z,3.83
2022-11-24T02:58:15.782Z,3.13
2022-11-24T03:01:58.822Z,3.38
2022-11-24T03:05:40.616Z,2.72
2022-11-24T03:09:22.311Z,3.08
2022-11-24T03:13:05.077Z,3.10
2022-11-24T03:16:46.769Z,3.28
2022-11-24T03:20:28.552Z,3.05
2022-11-24T03:24:10.398Z,3.35
2022-11-24T03:27:52.133Z,2.70
2022-11-24T03:31:34.178Z,3.85
2022-11-24T03:35:15.963Z,3.15
2022-11-24T03:38:57.647Z,2.25
2022-11-24T03:42:41.611Z,3.35
2022-11-24T03:46:23.355Z,3.63
2022-11-24T03:50:05.614Z,2.65
2022-11-24T03:53:48.505Z,3.42
2022-11-24T03:57:30.245Z,3.30
2022-11-24T04:01:32.730Z,3.33
2022-11-24T04:05:14.637Z,3.15
2022-11-24T04:08:56.514Z,3.00
2022-11-24T04:12:44.541Z,4.10
2022-11-24T04:16:26.550Z,3.42
2022-11-24T04:20:10.571Z,3.33
2022-11-24T04:23:52.385Z,3.10
2022-11-24T04:27:34.369Z,3.50
2022-11-24T04:31:16.394Z,3.75
2022-11-24T04:34:58.145Z,3.53
2022-11-24T04:39:19.986Z,3.40
2022-11-24T04:42:43.266Z,3.00
2022-11-24T04:46:24.969Z,3.10
2022-11-24T04:50:07.751Z,3.67
2022-11-24T04:53:50.786Z,3.63
2022-11-24T04:57:32.471Z,3.10
2022-11-24T05:01:14.225Z,3.50
2022-11-24T05:04:55.912Z,3.50
2022-11-24T05:08:37.645Z,3.42
2022-11-24T05:12:20.418Z,3.47
2022-11-24T05:16:02.165Z,3.58
2022-11-24T05:19:43.982Z,3.88
2022-11-24T05:23:25.969Z,3.22
2022-11-24T05:27:07.637Z,3.53
2022-11-24T05:30:49.326Z,3.35
2022-11-24T05:34:33.578Z,3.28
2022-11-24T05:38:16.357Z,4.43
2022-11-24T05:41:58.351Z,3.50
2022-11-24T05:45:40.080Z,3.63
2022-11-24T05:49:21.790Z,3.15
2022-11-24T05:53:10.673Z,3.88
2022-11-24T05:56:52.342Z,3.70
2022-11-24T06:00:34.493Z,3.13
2022-11-24T06:04:16.334Z,4.45
2022-11-24T06:07:59.257Z,4.40
2022-11-24T06:11:41.178Z,4.33
2022-11-24T06:15:23.013Z,3.72
2022-11-24T06:19:04.694Z,3.97
2022-11-24T06:22:48.280Z,3.55
2022-11-24T06:26:29.955Z,4.45
2022-11-24T06:30:12.531Z,3.88
2022-11-24T06:33:57.463Z,4.00
2022-11-24T06:37:39.438Z,4.10
2022-11-24T06:41:21.137Z,4.25
2022-11-24T06:45:07.584Z,4.90
2022-11-24T06:48:53.992Z,5.20
2022-11-24T06:52:37.857Z,5.10
2022-11-24T06:56:20.177Z,4.47
2022-11-24T07:00:02.885Z,5.90
2022-11-24T07:03:45.925Z,3.20
2022-11-24T07:07:30.405Z,4.40
2022-11-24T07:11:17.061Z,3.83
2022-11-24T07:14:58.746Z,3.88
2022-11-24T07:18:40.865Z,4.80
2022-11-24T07:22:22.767Z,4.93
2022-11-24T07:26:06.957Z,4.13
2022-11-24T07:29:48.912Z,4.53
2022-11-24T07:33:31.839Z,4.88
2022-11-24T07:37:13.516Z,4.83
2022-11-24T07:40:55.195Z,5.45
2022-11-24T07:44:40.645Z,4.45
2022-11-24T07:48:22.799Z,5.22
2022-11-24T07:52:05.799Z,5.18
2022-11-24T07:56:13.858Z,4.28
2022-11-24T07:59:56.525Z,5.28
2022-11-24T08:03:39.612Z,6.60
2022-11-24T08:07:21.429Z,6.32
2022-11-24T08:11:11.120Z,5.60
2022-11-24T08:14:52.777Z,5.50
2022-11-24T08:18:35.192Z,6.30
2022-11-24T08:22:38.070Z,5.57
2022-11-24T08:26:19.764Z,5.35
2022-11-24T08:30:01.482Z,5.40
2022-11-24T08:33:43.221Z,6.50
2022-11-24T08:37:26.375Z,6.45
2022-11-24T08:41:12.901Z,5.75
2022-11-24T08:44:59.038Z,6.82
2022-11-24T08:48:41.580Z,6.70
2022-11-24T08:52:42.457Z,6.18
2022-11-24T08:56:24.766Z,6.25
2022-11-24T09:00:07.089Z,6.82
2022-11-24T09:03:50.925Z,7.00
2022-11-24T09:07:33.549Z,5.70
2022-11-24T09:11:16.366Z,5.55
2022-11-24T09:14:58.042Z,5.68
2022-11-24T09:18:39.868Z,5.30
2022-11-24T09:22:21.629Z,5.78
2022-11-24T09:26:30.521Z,6.82
2022-11-24T09:30:12.850Z,4.97
2022-11-24T09:34:13.768Z,6.30
2022-11-24T09:37:55.547Z,5.20
2022-11-24T09:41:46.163Z,4.85
2022-11-24T09:46:03.925Z,6.03
2022-11-24T09:50:00.386Z,6.30
2022-11-24T09:53:48.461Z,6.50
2022-11-24T09:57:34.226Z,5.90
2022-11-24T10:01:28.887Z,5.40
2022-11-24T10:05:12.451Z,5.50
2022-11-24T10:09:07.968Z,5.20
2022-11-24T10:13:02.280Z,5.70
2022-11-24T10:16:56.614Z,5.43
2022-11-24T10:20:59.764Z,4.82
2022-11-24T10:24:59.528Z,4.53
2022-11-24T10:28:43.052Z,5.20
2022-11-24T10:32:33.482Z,5.70
2022-11-24T10:36:48.680Z,5.10
2022-11-24T10:40:58.089Z,4.32
2022-11-24T10:44:41.380Z,5.40
2022-11-24T10:48:27.870Z,4.30
2022-11-24T10:53:05.827Z,4.32
2022-11-24T10:56:48.130Z,4.60
2022-11-24T11:00:30.881Z,4.60
2022-11-24T11:04:20.414Z,5.27
2022-11-24T11:08:34.739Z,4.47
2022-11-24T11:16:50.735Z,4.82
2022-11-24T11:20:33.598Z,5.05
2022-11-24T11:24:16.749Z,4.77
2022-11-24T11:28:25.331Z,4.82
2022-11-24T11:36:28.328Z,4.63
2022-11-24T11:40:16.747Z,4.65
2022-11-24T11:44:17.545Z,4.97
2022-11-24T11:48:02.797Z,5.18
2022-11-24T11:52:01.055Z,5.22
2022-11-24T11:56:07.110Z,4.85
2022-11-24T12:00:20.395Z,3.95
2022-11-24T12:04:58.756Z,4.18
2022-11-24T12:09:22.545Z,4.03
2022-11-24T12:13:24.586Z,4.68
2022-11-24T12:17:30.402Z,5.13
2022-11-24T12:21:22.842Z,4.10
2022-11-24T12:25:21.919Z,3.35
2022-11-24T12:29:06.718Z,4.95
2022-11-24T12:33:50.494Z,3.88
2022-11-24T12:37:58.625Z,3.78
2022-11-24T12:41:49.614Z,4.07
2022-11-24T12:45:45.229Z,4.22
2022-11-24T12:49:47.109Z,3.67
2022-11-24T12:53:32.309Z,4.53
2022-11-24T12:57:33.513Z,5.22
2022-11-24T13:01:31.881Z,4.13
2022-11-24T13:05:27.764Z,3.85
2022-11-24T13:09:12.880Z,4.07
2022-11-24T13:13:02.149Z,3.97
2022-11-24T13:17:28.193Z,4.35
2022-11-24T13:20:53.675Z,3.22
2022-11-24T13:24:38.802Z,2.80
2022-11-24T13:29:17.882Z,3.00
2022-11-24T13:33:21.669Z,3.65
2022-11-24T13:37:34.738Z,4.03
2022-11-24T13:41:35.015Z,3.05
2022-11-24T13:45:35.505Z,3.35
2022-11-24T13:49:20.430Z,3.83
2022-11-24T13:53:09.433Z,3.45
2022-11-24T13:56:58.447Z,3.53
2022-11-24T14:01:04.176Z,3.20
2022-11-24T14:05:42.140Z,1.77
2022-11-24T14:09:28.750Z,1.73
2022-11-24T14:13:28.847Z,1.38
2022-11-24T14:17:14.082Z,1.48
2022-11-24T14:21:00.468Z,2.45
2022-11-24T14:24:45.480Z,2.28
2022-11-24T14:28:28.430Z,2.35
2022-11-24T14:32:16.741Z,2.87
2022-11-24T14:35:58.439Z,2.63
2022-11-24T14:39:41.070Z,2.55
2022-11-24T14:43:22.814Z,2.72
2022-11-24T14:47:05.700Z,3.38
2022-11-24T14:50:47.489Z,3.30
2022-11-24T14:54:32.802Z,3.20
2022-11-24T14:58:29.794Z,2.83
2022-11-24T15:02:50.068Z,2.60
2022-11-24T15:06:31.826Z,2.45
2022-11-24T15:10:35.097Z,2.22
2022-11-24T15:14:49.110Z,1.90
2022-11-24T15:18:41.797Z,1.90
2022-11-24T15:22:46.353Z,2.47
2022-11-24T15:26:34.222Z,1.88
2022-11-24T15:30:20.138Z,2.15
2022-11-24T15:34:22.029Z,2.42
2022-11-24T15:38:03.786Z,2.70
2022-11-24T15:41:47.926Z,2.47
2022-11-24T15:45:29.646Z,2.70
2022-11-24T15:49:11.359Z,3.70
2022-11-24T15:52:57.389Z,4.15
2022-11-24T15:56:41.784Z,3.50
2022-11-24T16:00:24.157Z,3.50
2022-11-24T16:04:27.912Z,3.42
2022-11-24T16:08:13.402Z,3.70
2022-11-24T16:12:15.589Z,3.20
2022-11-24T16:15:57.360Z,2.60
2022-11-24T16:19:42.010Z,3.80
2022-11-24T16:28:20.314Z,3.78
2022-11-24T16:32:04.513Z,4.57
2022-11-24T16:35:49.397Z,4.28
2022-11-24T16:39:31.117Z,4.55
2022-11-24T16:43:34.202Z,5.53
2022-11-24T16:47:16.679Z,4.40
2022-11-24T16:51:04.235Z,4.25
2022-11-24T16:54:47.396Z,5.18
2022-11-24T16:58:29.113Z,5.22
2022-11-24T17:02:49.884Z,4.15
2022-11-24T17:06:32.614Z,5.70
2022-11-24T17:10:14.409Z,7.25
2022-11-24T17:13:58.280Z,6.40
2022-11-24T17:17:55.380Z,4.78
2022-11-24T17:21:43.838Z,4.80
2022-11-24T17:25:25.532Z,4.13
2022-11-24T17:29:07.353Z,5.00
2022-11-24T17:32:53.670Z,4.90
2022-11-24T17:36:38.670Z,5.47
2022-11-24T17:40:28.487Z,6.60
2022-11-24T17:44:13.157Z,5.68
2022-11-24T17:47:55.431Z,4.85
2022-11-24T17:51:38.239Z,5.65
2022-11-24T17:55:19.965Z,4.13
2022-11-24T17:59:01.782Z,4.30
2022-11-24T18:03:05.408Z,4.63
2022-11-24T18:06:47.194Z,4.63
2022-11-24T18:10:29.021Z,4.38
2022-11-24T18:14:14.639Z,4.70
2022-11-24T18:17:56.382Z,8.50
2022-11-24T18:21:46.544Z,6.28
2022-11-24T18:25:28.337Z,5.93
2022-11-24T18:29:10.591Z,3.63
2022-11-24T18:33:13.190Z,4.60
2022-11-24T18:36:54.922Z,3.70
2022-11-24T18:40:40.311Z,4.53
2022-11-24T18:44:49.744Z,4.22
2022-11-24T18:48:34.575Z,3.60
2022-11-24T18:52:18.461Z,4.63
2022-11-24T18:56:02.342Z,3.60
2022-11-24T18:59:44.087Z,6.82
2022-11-24T19:04:25.747Z,4.60
2022-11-24T19:08:07.484Z,3.90
2022-11-24T19:11:53.000Z,4.10
2022-11-24T19:15:35.053Z,4.28
2022-11-24T19:19:17.241Z,3.90
2022-11-24T19:23:20.036Z,3.13
2022-11-24T19:27:02.278Z,3.35
2022-11-24T19:30:45.325Z,6.20
2022-11-24T19:34:34.454Z,7.28
2022-11-24T19:38:16.346Z,5.75
2022-11-24T19:42:54.466Z,5.85
2022-11-24T19:46:36.265Z,3.60
2022-11-24T19:50:18.597Z,4.15
2022-11-24T19:54:21.218Z,4.18
2022-11-24T19:58:02.950Z,3.60
2022-11-24T20:02:22.324Z,5.50
2022-11-24T20:06:04.787Z,5.20
2022-11-24T20:09:46.469Z,3.72
2022-11-24T20:13:29.436Z,4.88
2022-11-24T20:17:13.071Z,4.10
2022-11-24T20:20:55.593Z,4.10
2022-11-24T20:24:39.627Z,6.32
2022-11-24T20:28:22.244Z,4.38
2022-11-24T20:32:42.990Z,5.30
2022-11-24T20:36:26.298Z,4.18
2022-11-24T20:40:08.787Z,4.50
2022-11-24T20:44:47.237Z,4.28
2022-11-24T20:48:29.057Z,3.78
2022-11-24T20:52:50.580Z,3.65
2022-11-24T20:56:35.119Z,4.05
2022-11-24T21:00:17.033Z,3.78
2022-11-24T21:04:38.544Z,4.82
2022-11-24T21:08:20.360Z,4.63
2022-11-24T21:12:02.162Z,4.50
2022-11-24T21:15:43.941Z,5.00
2022-11-24T21:19:25.670Z,5.45
2022-11-24T21:23:28.374Z,4.70
2022-11-24T21:27:10.178Z,5.10
2022-11-24T21:30:51.986Z,4.43
2022-11-24T21:35:30.193Z,4.07
2022-11-24T21:39:13.621Z,3.78
2022-11-24T21:43:14.534Z,3.67
2022-11-24T21:46:56.370Z,5.32
2022-11-24T21:50:38.126Z,3.92
2022-11-24T21:54:19.898Z,5.80
2022-11-24T21:58:01.564Z,5.35
2022-11-24T22:01:44.472Z,4.55
2022-11-24T22:05:26.142Z,4.03
2022-11-24T22:09:07.802Z,4.90
2022-11-24T22:12:51.071Z,4.78
2022-11-24T22:16:32.821Z,4.68
2022-11-24T22:20:14.678Z,3.83
2022-11-24T22:23:56.594Z,4.70
2022-11-24T22:27:38.264Z,4.60
2022-11-24T22:31:27.092Z,4.43
2022-11-24T22:35:09.235Z,5.53
2022-11-24T22:38:58.704Z,4.93
2022-11-24T22:43:01.399Z,4.07
2022-11-24T22:46:43.068Z,4.53
2022-11-24T22:50:24.771Z,4.20
2022-11-24T22:54:25.493Z,4.32
2022-11-24T22:58:07.147Z,3.80
2022-11-24T23:01:48.874Z,4.78
2022-11-24T23:05:32.945Z,3.63
2022-11-24T23:09:14.701Z,4.68
2022-11-24T23:12:56.497Z,3.45
2022-11-24T23:16:38.230Z,4.45
2022-11-24T23:20:20.009Z,4.40
2022-11-24T23:24:02.484Z,4.22
2022-11-24T23:27:44.166Z,3.45
2022-11-24T23:31:28.712Z,4.35
2022-11-24T23:35:13.733Z,4.35
2022-11-24T23:38:55.888Z,3.78
2022-11-24T23:42:37.571Z,3.55
2022-11-24T23:46:20.840Z,4.43
2022-11-24T23:50:02.740Z,4.20
2022-11-24T23:53:44.760Z,3.58
2022-11-24T23:57:27.388Z,2.72
